createdAt,value
2022-09-22T00:01:33.296Z,98489.97
2022-09-22T00:04:07.046Z,98478.22
2022-09-22T00:06:47.475Z,98483.50
2022-09-22T00:09:17.439Z,98488.78
2022-09-22T00:11:49.217Z,98489.91
2022-09-22T00:14:26.615Z,98482.47
2022-09-22T00:17:01.037Z,98478.25
2022-09-22T00:19:37.100Z,98480.75
2022-09-22T00:22:05.392Z,98477.34
2022-09-22T00:24:33.537Z,98479.00
2022-09-22T00:27:01.251Z,98472.25
2022-09-22T00:29:30.699Z,98470.66
2022-09-22T00:31:57.898Z,98476.88
2022-09-22T00:34:27.108Z,98461.47
2022-09-22T00:36:54.292Z,98467.53
2022-09-22T00:39:21.057Z,98465.78
2022-09-22T00:41:51.749Z,98467.59
2022-09-22T00:44:21.324Z,98464.31
2022-09-22T00:47:01.273Z,98468.56
2022-09-22T00:49:59.991Z,98454.91
2022-09-22T00:52:49.100Z,98463.69
2022-09-22T00:55:30.052Z,98460.59
2022-09-22T00:58:00.482Z,98461.66
2022-09-22T01:00:27.312Z,98467.72
2022-09-22T01:02:59.020Z,98464.38
2022-09-22T01:05:29.811Z,98461.97
2022-09-22T01:07:56.610Z,98460.38
2022-09-22T01:10:24.012Z,98452.84
2022-09-22T01:13:32.521Z,98461.56
2022-09-22T01:16:48.469Z,98452.41
2022-09-22T01:19:57.711Z,98448.16
2022-09-22T01:22:38.809Z,98447.38
2022-09-22T01:25:48.525Z,98445.78
2022-09-22T01:28:58.954Z,98432.94
2022-09-22T01:31:39.646Z,98443.25
2022-09-22T01:34:19.651Z,98437.31
2022-09-22T01:37:11.148Z,98440.75
2022-09-22T01:39:51.233Z,98433.91
2022-09-22T01:42:45.461Z,98438.50
2022-09-22T01:45:25.970Z,98438.75
2022-09-22T01:47:58.923Z,98438.00
2022-09-22T01:50:33.997Z,98436.38
2022-09-22T01:53:10.109Z,98433.88
2022-09-22T01:55:40.816Z,98434.03
2022-09-22T01:58:29.946Z,98433.22
2022-09-22T02:01:10.914Z,98430.63
2022-09-22T02:03:51.337Z,98430.91
2022-09-22T02:06:31.550Z,98427.81
2022-09-22T02:09:11.695Z,98427.09
2022-09-22T02:11:39.714Z,98431.41
2022-09-22T02:14:07.438Z,98433.22
2022-09-22T02:16:34.969Z,98434.06
2022-09-22T02:19:20.925Z,98424.66
2022-09-22T02:21:51.627Z,98429.75
2022-09-22T02:24:44.024Z,98429.06
2022-09-22T02:27:27.973Z,98436.09
2022-09-22T02:30:01.810Z,98436.25
2022-09-22T02:32:30.551Z,98434.56
2022-09-22T02:34:57.449Z,98433.88
2022-09-22T02:37:53.841Z,98427.03
2022-09-22T02:41:01.110Z,98430.75
2022-09-22T02:43:53.443Z,98431.78
2022-09-22T02:46:41.104Z,98434.44
2022-09-22T02:49:15.874Z,98440.50
2022-09-22T02:51:43.690Z,98434.66
2022-09-22T02:54:10.449Z,98441.66
2022-09-22T02:56:37.238Z,98442.69
2022-09-22T02:59:04.118Z,98429.94
2022-09-22T03:01:30.901Z,98441.97
2022-09-22T03:03:57.647Z,98428.19
2022-09-22T03:06:24.362Z,98429.84
2022-09-22T03:08:51.082Z,98439.38
2022-09-22T03:11:17.786Z,98422.28
2022-09-22T03:13:44.489Z,98435.97
2022-09-22T03:16:11.300Z,98434.31
2022-09-22T03:18:38.069Z,98433.59
2022-09-22T03:21:05.105Z,98428.50
2022-09-22T03:23:31.860Z,98424.34
2022-09-22T03:25:58.564Z,98423.72
2022-09-22T03:28:25.289Z,98435.03
2022-09-22T03:30:52.103Z,98419.06
2022-09-22T03:33:18.806Z,98421.69
2022-09-22T03:35:45.564Z,98429.34
2022-09-22T03:38:12.241Z,98419.97
2022-09-22T03:40:39.031Z,98428.56
2022-09-22T03:43:05.830Z,98427.88
2022-09-22T03:45:32.538Z,98422.88
2022-09-22T03:47:59.274Z,98433.34
2022-09-22T03:50:26.555Z,98429.28
2022-09-22T03:52:53.254Z,98431.13
2022-09-22T03:55:19.937Z,98432.97
2022-09-22T03:57:46.869Z,98430.47
2022-09-22T04:00:14.138Z,98424.69
2022-09-22T04:02:41.453Z,98424.75
2022-09-22T04:05:09.184Z,98428.97
2022-09-22T04:07:36.317Z,98430.53
2022-09-22T04:10:03.805Z,98427.06
2022-09-22T04:12:30.580Z,98422.69
2022-09-22T04:14:57.278Z,98414.16
2022-09-22T04:17:24.062Z,98424.38
2022-09-22T04:19:50.788Z,98418.38
2022-09-22T04:22:17.543Z,98420.13
2022-09-22T04:24:44.282Z,98419.22
2022-09-22T04:27:26.414Z,98414.84
2022-09-22T04:29:53.215Z,98419.22
2022-09-22T04:32:23.362Z,98424.44
2022-09-22T04:34:50.176Z,98417.72
2022-09-22T04:37:16.867Z,98421.97
2022-09-22T04:39:43.554Z,98426.41
2022-09-22T04:42:10.301Z,98431.63
2022-09-22T04:44:37.062Z,98416.34
2022-09-22T04:47:04.878Z,98423.28
2022-09-22T04:49:31.569Z,98416.47
2022-09-22T04:51:58.256Z,98423.28
2022-09-22T04:54:24.991Z,98416.41
2022-09-22T04:56:51.701Z,98420.63
2022-09-22T04:59:18.438Z,98423.22
2022-09-22T05:01:45.249Z,98423.09
2022-09-22T05:04:12.026Z,98421.34
2022-09-22T05:06:39.062Z,98420.38
2022-09-22T05:09:05.846Z,98416.91
2022-09-22T05:11:32.687Z,98419.47
2022-09-22T05:13:59.461Z,98426.41
2022-09-22T05:16:26.546Z,98425.53
2022-09-22T05:18:53.646Z,98418.56
2022-09-22T05:21:20.416Z,98428.72
2022-09-22T05:23:47.496Z,98419.28
2022-09-22T05:26:14.381Z,98428.47
2022-09-22T05:28:41.179Z,98421.44
2022-09-22T05:31:07.976Z,98429.94
2022-09-22T05:33:34.719Z,98428.22
2022-09-22T05:36:01.843Z,98437.66
2022-09-22T05:38:28.827Z,98434.31
2022-09-22T05:40:55.558Z,98436.81
2022-09-22T05:43:22.286Z,98444.41
2022-09-22T05:45:49.739Z,98440.03
2022-09-22T05:48:16.515Z,98440.72
2022-09-22T05:50:45.253Z,98444.06
2022-09-22T05:53:13.632Z,98443.09
2022-09-22T05:55:41.148Z,98444.72
2022-09-22T05:58:14.014Z,98444.56
2022-09-22T06:00:42.111Z,98446.03
2022-09-22T06:03:09.127Z,98446.66
2022-09-22T06:05:38.195Z,98442.97
2022-09-22T06:08:07.767Z,98441.88
2022-09-22T06:10:37.761Z,98440.00
2022-09-22T06:13:10.333Z,98442.38
2022-09-22T06:15:38.326Z,98443.75
2022-09-22T06:18:13.144Z,98446.06
2022-09-22T06:20:42.381Z,98443.13
2022-09-22T06:23:09.075Z,98443.53
2022-09-22T06:25:35.801Z,98443.09
2022-09-22T06:28:06.307Z,98454.63
2022-09-22T06:30:35.285Z,98463.50
2022-09-22T06:33:02.935Z,98444.34
2022-09-22T06:35:37.419Z,98453.31
2022-09-22T06:38:06.621Z,98450.97
2022-09-22T06:40:38.238Z,98449.53
2022-09-22T06:43:11.740Z,98448.75
2022-09-22T06:45:44.642Z,98444.63
2022-09-22T06:48:11.618Z,98451.44
2022-09-22T06:50:40.802Z,98453.09
2022-09-22T06:53:13.694Z,98446.25
2022-09-22T06:55:43.836Z,98448.03
2022-09-22T06:58:12.698Z,98454.81
2022-09-22T07:00:41.966Z,98440.06
2022-09-22T07:03:22.291Z,98447.00
2022-09-22T07:06:01.204Z,98441.06
2022-09-22T07:08:31.304Z,98443.53
2022-09-22T07:11:02.204Z,98446.00
2022-09-22T07:13:31.576Z,98445.88
2022-09-22T07:16:11.544Z,98440.88
2022-09-22T07:18:44.914Z,98450.66
2022-09-22T07:21:21.213Z,98436.03
2022-09-22T07:23:52.491Z,98434.03
2022-09-22T07:26:26.596Z,98439.38
2022-09-22T07:28:54.929Z,98436.06
2022-09-22T07:31:28.441Z,98434.56
2022-09-22T07:33:56.550Z,98433.22
2022-09-22T07:36:27.648Z,98428.47
2022-09-22T07:38:58.196Z,98436.66
2022-09-22T07:41:28.690Z,98438.88
2022-09-22T07:44:22.006Z,98434.28
2022-09-22T07:46:49.005Z,98436.56
2022-09-22T07:49:17.466Z,98429.50
2022-09-22T07:51:44.284Z,98436.31
2022-09-22T07:54:11.376Z,98432.75
2022-09-22T07:56:44.234Z,98431.72
2022-09-22T07:59:15.030Z,98436.13
2022-09-22T08:01:47.558Z,98436.38
2022-09-22T08:04:18.667Z,98434.03
2022-09-22T08:06:48.654Z,98441.06
2022-09-22T08:09:15.839Z,98437.84
2022-09-22T08:11:45.850Z,98430.34
2022-09-22T08:14:12.850Z,98433.00
2022-09-22T08:16:41.016Z,98425.50
2022-09-22T08:19:12.517Z,98426.53
2022-09-22T08:21:48.282Z,98418.44
2022-09-22T08:24:21.029Z,98421.28
2022-09-22T08:26:52.786Z,98413.44
2022-09-22T08:29:20.450Z,98420.25
2022-09-22T08:31:49.081Z,98417.03
2022-09-22T08:34:17.443Z,98420.63
2022-09-22T08:36:48.441Z,98414.56
2022-09-22T08:39:17.648Z,98423.25
2022-09-22T08:42:01.985Z,98407.00
2022-09-22T08:45:24.813Z,98417.31
2022-09-22T08:48:21.669Z,98395.44
2022-09-22T08:51:16.888Z,98400.88
2022-09-22T08:53:49.580Z,98404.75
2022-09-22T08:56:32.529Z,98406.97
2022-09-22T08:59:22.872Z,98404.81
2022-09-22T09:02:19.063Z,98413.75
2022-09-22T09:05:07.922Z,98406.50
2022-09-22T09:08:13.625Z,98407.06
2022-09-22T09:10:54.368Z,98401.03
2022-09-22T09:14:07.184Z,98403.78
2022-09-22T09:16:52.471Z,98399.09
2022-09-22T09:19:42.020Z,98396.13
2022-09-22T09:22:25.234Z,98390.53
2022-09-22T09:25:35.617Z,98391.06
2022-09-22T09:28:22.955Z,98390.94
2022-09-22T09:30:59.179Z,98386.56
2022-09-22T09:33:55.200Z,98393.19
2022-09-22T09:36:29.371Z,98379.84
2022-09-22T09:38:59.606Z,98388.88
2022-09-22T09:41:32.812Z,98378.91
2022-09-22T09:44:02.929Z,98383.50
2022-09-22T09:47:11.451Z,98380.47
2022-09-22T09:49:38.294Z,98380.28
2022-09-22T09:52:14.154Z,98371.81
2022-09-22T09:54:43.335Z,98376.41
2022-09-22T09:57:16.170Z,98375.88
2022-09-22T10:00:04.636Z,98372.81
2022-09-22T10:02:35.066Z,98370.78
2022-09-22T10:05:07.607Z,98369.66
2022-09-22T10:07:58.137Z,98369.19
2022-09-22T10:10:39.007Z,98366.00
2022-09-22T10:13:05.615Z,98378.84
2022-09-22T10:15:36.257Z,98363.97
2022-09-22T10:18:23.515Z,98368.13
2022-09-22T10:21:17.847Z,98358.06
2022-09-22T10:23:49.822Z,98366.38
2022-09-22T10:26:19.594Z,98357.09
2022-09-22T10:29:09.348Z,98365.50
2022-09-22T10:31:38.110Z,98364.50
2022-09-22T10:34:23.190Z,98351.94
2022-09-22T10:36:50.710Z,98359.94
2022-09-22T10:39:20.123Z,98347.38
2022-09-22T10:41:48.731Z,98352.34
2022-09-22T10:44:37.972Z,98351.91
2022-09-22T10:47:26.253Z,98350.63
2022-09-22T10:50:21.822Z,98344.13
2022-09-22T10:53:43.630Z,98335.75
2022-09-22T10:56:46.141Z,98332.25
2022-09-22T10:59:49.802Z,98328.25
2022-09-22T11:03:08.365Z,98329.91
2022-09-22T11:06:25.981Z,98330.56
2022-09-22T11:09:31.638Z,98326.59
2022-09-22T11:12:22.167Z,98324.06
2022-09-22T11:15:38.532Z,98323.34
2022-09-22T11:18:28.484Z,98316.09
2022-09-22T11:21:31.138Z,98322.28
2022-09-22T11:24:14.626Z,98316.66
2022-09-22T11:26:54.090Z,98316.66
2022-09-22T11:29:56.933Z,98310.78
2022-09-22T11:33:09.958Z,98300.34
2022-09-22T11:36:07.875Z,98295.09
2022-09-22T11:39:10.380Z,98299.13
2022-09-22T11:42:18.916Z,98283.75
2022-09-22T11:45:20.919Z,98283.75
2022-09-22T11:48:10.610Z,98286.53
2022-09-22T11:51:16.350Z,98283.88
2022-09-22T11:54:07.930Z,98283.38
2022-09-22T11:56:41.037Z,98268.50
2022-09-22T12:00:15.301Z,98269.31
2022-09-22T12:03:11.145Z,98261.50
2022-09-22T12:05:54.709Z,98260.66
2022-09-22T12:08:28.929Z,98269.94
2022-09-22T12:10:56.923Z,98265.97
2022-09-22T12:13:30.855Z,98254.75
2022-09-22T12:16:09.885Z,98247.81
2022-09-22T12:19:13.497Z,98246.50
2022-09-22T12:22:00.309Z,98242.47
2022-09-22T12:24:27.067Z,98246.44
2022-09-22T12:26:53.979Z,98241.59
2022-09-22T12:29:25.702Z,98238.41
2022-09-22T12:31:56.591Z,98237.16
2022-09-22T12:34:44.293Z,98242.69
2022-09-22T12:37:37.828Z,98242.72
2022-09-22T12:40:35.567Z,98240.28
2022-09-22T12:43:02.867Z,98233.72
2022-09-22T12:45:35.969Z,98226.81
2022-09-22T12:48:14.475Z,98231.38
2022-09-22T12:50:44.058Z,98221.75
2022-09-22T12:53:22.499Z,98217.47
2022-09-22T12:55:51.675Z,98221.69
2022-09-22T12:58:21.368Z,98214.25
2022-09-22T13:00:56.768Z,98206.28
2022-09-22T13:03:26.609Z,98208.38
2022-09-22T13:06:04.473Z,98213.66
2022-09-22T13:08:31.078Z,98202.63
2022-09-22T13:11:04.499Z,98210.56
2022-09-22T13:13:31.365Z,98201.56
2022-09-22T13:16:14.157Z,98199.00
2022-09-22T13:19:00.341Z,98197.25
2022-09-22T13:21:33.243Z,98194.25
2022-09-22T13:24:04.934Z,98195.34
2022-09-22T13:26:40.510Z,98197.47
2022-09-22T13:29:21.554Z,98190.81
2022-09-22T13:31:52.749Z,98194.00
2022-09-22T13:34:37.089Z,98195.69
2022-09-22T13:37:16.586Z,98186.81
2022-09-22T13:39:49.361Z,98195.72
2022-09-22T13:42:33.983Z,98192.00
2022-09-22T13:45:07.248Z,98184.41
2022-09-22T13:47:35.824Z,98184.72
2022-09-22T13:50:12.769Z,98191.31
2022-09-22T13:52:40.914Z,98181.16
2022-09-22T13:55:33.649Z,98177.91
2022-09-22T13:58:02.997Z,98178.56
2022-09-22T14:01:08.529Z,98173.84
2022-09-22T14:03:37.505Z,98170.53
2022-09-22T14:06:10.137Z,98160.75
2022-09-22T14:08:37.385Z,98160.75
2022-09-22T14:11:11.960Z,98159.41
2022-09-22T14:13:58.636Z,98160.78
2022-09-22T14:16:32.453Z,98162.84
2022-09-22T14:19:13.709Z,98156.16
2022-09-22T14:21:51.242Z,98157.00
2022-09-22T14:24:19.014Z,98151.03
2022-09-22T14:26:51.090Z,98146.16
2022-09-22T14:29:31.884Z,98139.81
2022-09-22T14:32:19.603Z,98127.63
2022-09-22T14:34:50.291Z,98126.78
2022-09-22T14:37:42.618Z,98118.41
2022-09-22T14:40:25.874Z,98120.06
2022-09-22T14:43:20.817Z,98126.84
2022-09-22T14:46:07.415Z,98110.59
2022-09-22T14:48:36.388Z,98120.66
2022-09-22T14:51:08.273Z,98100.81
2022-09-22T14:53:48.528Z,98106.22
2022-09-22T14:56:29.463Z,98129.09
2022-09-22T14:59:22.512Z,98113.75
2022-09-22T15:02:29.496Z,98101.19
2022-09-22T15:04:57.081Z,98105.75
2022-09-22T15:07:31.215Z,98099.31
2022-09-22T15:10:02.577Z,98107.75
2022-09-22T15:12:47.451Z,98100.41
2022-09-22T15:15:26.616Z,98100.34
2022-09-22T15:18:12.948Z,98097.78
2022-09-22T15:20:48.363Z,98095.56
2022-09-22T15:23:37.242Z,98097.09
2022-09-22T15:26:04.894Z,98099.25
2022-09-22T15:28:37.515Z,98093.28
2022-09-22T15:31:05.567Z,98090.38
2022-09-22T15:33:32.617Z,98091.09
2022-09-22T15:36:12.658Z,98093.03
2022-09-22T15:38:39.902Z,98089.91
2022-09-22T15:41:12.043Z,98097.00
2022-09-22T15:43:40.535Z,98094.44
2022-09-22T15:46:27.093Z,98089.63
2022-09-22T15:48:58.365Z,98086.25
2022-09-22T15:51:25.741Z,98092.81
2022-09-22T15:53:54.066Z,98079.34
2022-09-22T15:56:25.661Z,98085.28
2022-09-22T15:58:52.622Z,98083.66
2022-09-22T16:01:19.425Z,98078.78
2022-09-22T16:03:46.182Z,98083.25
2022-09-22T16:06:16.835Z,98089.03
2022-09-22T16:08:51.542Z,98071.84
2022-09-22T16:11:29.963Z,98062.88
2022-09-22T16:14:01.043Z,98072.88
2022-09-22T16:16:29.385Z,98080.56
2022-09-22T16:18:57.297Z,98076.63
2022-09-22T16:21:36.577Z,98074.22
2022-09-22T16:24:08.266Z,98070.47
2022-09-22T16:26:38.779Z,98059.44
2022-09-22T16:29:07.570Z,98067.69
2022-09-22T16:31:35.959Z,98073.94
2022-09-22T16:34:05.382Z,98072.16
2022-09-22T16:36:36.309Z,98067.34
2022-09-22T16:39:04.409Z,98074.38
2022-09-22T16:41:36.349Z,98074.81
2022-09-22T16:44:04.515Z,98056.72
2022-09-22T16:46:35.557Z,98068.44
2022-09-22T16:49:05.542Z,98068.22
2022-09-22T16:51:36.338Z,98070.78
2022-09-22T16:54:07.932Z,98088.34
2022-09-22T16:56:39.860Z,98071.94
2022-09-22T16:59:07.421Z,98078.84
2022-09-22T17:01:37.528Z,98075.47
2022-09-22T17:04:06.870Z,98073.81
2022-09-22T17:06:35.901Z,98084.19
2022-09-22T17:09:03.630Z,98081.28
2022-09-22T17:11:36.234Z,98080.94
2022-09-22T17:14:12.356Z,98077.41
2022-09-22T17:16:49.186Z,98082.09
2022-09-22T17:19:20.358Z,98084.09
2022-09-22T17:21:50.869Z,98088.56
2022-09-22T17:24:19.219Z,98089.72
2022-09-22T17:26:50.315Z,98072.56
2022-09-22T17:29:24.770Z,96729.22
2022-09-22T17:31:59.254Z,98092.97
2022-09-22T17:34:28.393Z,98094.94
2022-09-22T17:36:56.631Z,98097.56
2022-09-22T17:39:25.157Z,98090.72
2022-09-22T17:41:53.092Z,98091.19
2022-09-22T17:44:23.517Z,98093.00
2022-09-22T17:47:11.512Z,98096.44
2022-09-22T17:49:57.869Z,98095.75
2022-09-22T17:52:28.493Z,98086.53
2022-09-22T17:55:07.887Z,98090.66
2022-09-22T17:57:41.019Z,98096.50
2022-09-22T18:00:21.100Z,98107.50
2022-09-22T18:02:50.433Z,98103.69
2022-09-22T18:05:21.862Z,98109.63
2022-09-22T18:07:53.080Z,98108.66
2022-09-22T18:10:20.909Z,98105.78
2022-09-22T18:12:47.664Z,98113.34
2022-09-22T18:15:17.043Z,98109.53
2022-09-22T18:17:44.544Z,98113.56
2022-09-22T18:20:23.052Z,98107.22
2022-09-22T18:22:49.932Z,98113.81
2022-09-22T18:25:25.493Z,98110.00
2022-09-22T18:27:53.434Z,98106.53
2022-09-22T18:30:20.311Z,98097.72
2022-09-22T18:32:48.754Z,98112.22
2022-09-22T18:35:16.280Z,98115.41
2022-09-22T18:37:43.132Z,98118.78
2022-09-22T18:40:12.179Z,98110.38
2022-09-22T18:42:39.610Z,98125.25
2022-09-22T18:45:07.011Z,98120.59
2022-09-22T18:47:39.513Z,98121.13
2022-09-22T18:50:07.069Z,98126.88
2022-09-22T18:52:34.402Z,98128.03
2022-09-22T18:55:04.751Z,98131.78
2022-09-22T18:57:31.438Z,98125.34
2022-09-22T19:00:01.076Z,98128.25
2022-09-22T19:02:40.231Z,98124.31
2022-09-22T19:05:07.440Z,98130.56
2022-09-22T19:07:44.153Z,98136.06
2022-09-22T19:10:21.393Z,98137.34
2022-09-22T19:12:49.475Z,98137.84
2022-09-22T19:15:18.650Z,98135.59
2022-09-22T19:17:48.370Z,98140.28
2022-09-22T19:20:23.720Z,98141.28
2022-09-22T19:22:51.892Z,98137.34
2022-09-22T19:25:21.192Z,98138.38
2022-09-22T19:27:48.224Z,98130.97
2022-09-22T19:30:14.963Z,98134.00
2022-09-22T19:32:41.735Z,98130.97
2022-09-22T19:35:09.641Z,98138.25
2022-09-22T19:37:37.038Z,98133.44
2022-09-22T19:40:06.752Z,98136.56
2022-09-22T19:42:40.115Z,98136.13
2022-09-22T19:45:08.433Z,98135.50
2022-09-22T19:47:35.325Z,98129.97
2022-09-22T19:50:02.105Z,98145.25
2022-09-22T19:52:28.808Z,98137.09
2022-09-22T19:54:55.491Z,98130.47
2022-09-22T19:57:22.180Z,98129.53
2022-09-22T19:59:48.867Z,98129.84
2022-09-22T20:02:16.276Z,98125.75
2022-09-22T20:04:43.164Z,98133.13
2022-09-22T20:07:10.671Z,98134.34
2022-09-22T20:09:37.363Z,98138.38
2022-09-22T20:12:05.231Z,98137.81
2022-09-22T20:14:32.044Z,98133.66
2022-09-22T20:17:06.476Z,98137.28
2022-09-22T20:19:39.977Z,98137.66
2022-09-22T20:22:27.636Z,98126.66
2022-09-22T20:25:01.358Z,98122.50
2022-09-22T20:27:32.274Z,98120.84
2022-09-22T20:30:00.037Z,98115.28
2022-09-22T20:32:31.398Z,98124.19
2022-09-22T20:34:58.337Z,98124.19
2022-09-22T20:37:25.308Z,98125.69
2022-09-22T20:39:52.287Z,98129.31
2022-09-22T20:42:19.052Z,98120.81
2022-09-22T20:44:46.765Z,98116.81
2022-09-22T20:47:19.807Z,98120.94
2022-09-22T20:49:51.383Z,98125.75
2022-09-22T20:52:20.659Z,98120.16
2022-09-22T20:54:48.410Z,98124.78
2022-09-22T20:57:15.431Z,98121.75
2022-09-22T20:59:45.596Z,98119.22
2022-09-22T21:02:13.908Z,98119.31
2022-09-22T21:04:41.155Z,98118.69
2022-09-22T21:07:08.542Z,98119.63
2022-09-22T21:09:53.979Z,98119.97
2022-09-22T21:12:20.963Z,98135.34
2022-09-22T21:14:48.687Z,98132.75
2022-09-22T21:17:15.466Z,98134.50
2022-09-22T21:22:10.199Z,98134.31
2022-09-22T21:24:36.960Z,98137.97
2022-09-22T21:27:04.969Z,98128.91
2022-09-22T21:29:32.193Z,98137.84
2022-09-22T21:32:00.404Z,98129.72
2022-09-22T21:34:27.656Z,98123.97
2022-09-22T21:36:54.352Z,98127.75
2022-09-22T21:39:21.383Z,98127.03
2022-09-22T21:41:48.603Z,98124.78
2022-09-22T21:44:15.510Z,98127.72
2022-09-22T21:46:42.536Z,98133.16
2022-09-22T21:49:10.361Z,98128.16
2022-09-22T21:51:44.159Z,98129.66
2022-09-22T21:54:17.564Z,98117.88
2022-09-22T21:56:45.128Z,98118.34
2022-09-22T21:59:13.354Z,98119.59
2022-09-22T22:01:44.846Z,98118.13
2022-09-22T22:04:15.088Z,98111.19
2022-09-22T22:06:44.840Z,98119.69
2022-09-22T22:09:20.569Z,98121.53
2022-09-22T22:11:51.600Z,98118.22
2022-09-22T22:14:20.350Z,98113.19
2022-09-22T22:16:50.479Z,98120.19
2022-09-22T22:19:20.849Z,98104.31
2022-09-22T22:21:50.541Z,98109.97
2022-09-22T22:24:30.280Z,98112.81
2022-09-22T22:27:10.560Z,98103.56
2022-09-22T22:29:40.955Z,98096.72
2022-09-22T22:32:10.601Z,98102.25
2022-09-22T22:34:37.765Z,98097.41
2022-09-22T22:37:06.958Z,98102.09
2022-09-22T22:39:33.770Z,98104.75
2022-09-22T22:42:00.503Z,98102.31
2022-09-22T22:44:27.220Z,98095.50
2022-09-22T22:46:53.942Z,98098.16
2022-09-22T22:49:20.669Z,98105.16
2022-09-22T22:51:49.115Z,98095.66
2022-09-22T22:54:16.070Z,98097.59
2022-09-22T22:56:45.781Z,98097.81
2022-09-22T22:59:14.800Z,98092.75
2022-09-22T23:01:43.897Z,98103.31
2022-09-22T23:04:11.790Z,98096.06
2022-09-22T23:06:43.649Z,98098.81
2022-09-22T23:09:14.396Z,98098.06
2022-09-22T23:11:42.659Z,98100.81
2022-09-22T23:14:12.938Z,98102.56
2022-09-22T23:16:46.529Z,98100.22
2022-09-22T23:19:18.693Z,98096.88
2022-09-22T23:21:46.711Z,98096.88
2022-09-22T23:24:18.721Z,98093.47
2022-09-22T23:26:46.002Z,98088.47
2022-09-22T23:29:12.959Z,98092.06
2022-09-22T23:31:42.805Z,98097.38
2022-09-22T23:34:09.594Z,98095.78
2022-09-22T23:36:36.297Z,98095.88
2022-09-22T23:39:04.611Z,98096.69
2022-09-22T23:41:34.508Z,98082.22
2022-09-22T23:44:03.020Z,98086.59
2022-09-22T23:46:30.235Z,98086.91
2022-09-22T23:48:57.671Z,98085.50
2022-09-22T23:51:24.383Z,98088.06
2022-09-22T23:53:52.288Z,98088.22
2022-09-22T23:56:19.566Z,98082.28
2022-09-22T23:58:46.538Z,98090.13
